ADDS METAR Data INFO
IDs: Format: Raw Decoded Include TAF

Data at: 1155 UTC 25 Jun 2018

KALI 251053Z AUTO 16008KT 10SM CLR 25/23 A2989 RMK AO2 SLP120 T02500233
KALI 251017Z AUTO 16010KT 10SM SCT014 26/23 A2989 RMK AO2 T02560233
KALI 250953Z AUTO 16009KT 10SM OVC015 26/23 A2989 RMK AO2 SLP120 T02560233
KALI 250928Z AUTO 16004KT 10SM BKN019 26/23 A2988 RMK AO2 T02560228
KALI 250853Z AUTO 15007KT 10SM CLR 26/23 A2988 RMK AO2 SLP115 T02560228 56004
KALI 250753Z AUTO 15007KT 10SM FEW018 26/24 A2988 RMK AO2 SLP116 T02560239
KALI 250653Z AUTO 13006KT 10SM FEW013 BKN046 OVC055 26/24 A2989 RMK AO2 SLP118 T02560239
KALI 250633Z AUTO 09003KT 10SM SCT017 OVC046 26/24 A2989 RMK AO2 T02560239
KALI 250614Z AUTO 08004KT 10SM BKN018 BKN023 OVC038 26/24 A2989 RMK AO2 T02560239
KALI 250603Z AUTO 09003KT 10SM FEW018 SCT022 OVC038 26/24 A2990 RMK AO2 T02560239
KALI 250553Z AUTO 10004KT 10SM SCT021 BKN029 OVC036 26/24 A2989 RMK AO2 SLP119 T02560239 10300 20250 403440250 50013
KALI 250531Z AUTO 00000KT 10SM BKN021 25/24 A2989 RMK AO2 T02500239
KALI 250453Z AUTO 12003KT 10SM CLR 25/23 A2989 RMK AO2 SLP120 T02500233
KALI 250353Z AUTO 13008KT 10SM CLR 26/23 A2988 RMK AO2 SLP117 T02610233
KALI 250253Z AUTO 14008KT 10SM CLR 27/24 A2985 RMK AO2 SLP106 T02670239 53014
KALI 250153Z AUTO 13009KT 10SM CLR 27/23 A2984 RMK AO2 SLP101 T02720233
KALI 250053Z AUTO 13012KT 10SM CLR 28/23 A2981 RMK AO2 SLP093 T02830228
KALI 242353Z AUTO 12015G21KT 10SM CLR 30/23 A2981 RMK AO2 SLP092 T03000228 10344 20300 55003
KALI 242253Z AUTO 13017G22KT 10SM FEW034 32/23 A2981 RMK AO2 SLP091 T03170228
KALI 242153Z AUTO 15016G24KT 10SM FEW037 33/23 A2981 RMK AO2 SLP091 T03330233
KALI 242053Z AUTO 13016G24KT 10SM FEW037 34/23 A2982 RMK AO2 PK WND 12026/1957 SLP095 T03390233 58006
KALI 241953Z AUTO 13016G27KT 10SM BKN035 33/24 A2984 RMK AO2 PK WND 13027/1908 SLP101 T03330239
KALI 241853Z AUTO 13017G25KT 10SM SCT034 SCT040 SCT048 34/24 A2985 RMK AO2 PK WND 14027/1824 SLP105 T03390239
KALI 241753Z AUTO 15013G21KT 10SM FEW036 34/23 A2984 RMK AO2 SLP101 T03390228 10344 20256 50002
KALI 241653Z AUTO 13014KT 10SM FEW030 33/23 A2984 RMK AO2 SLP102 T03280233
KALI 241553Z AUTO 17012KT 10SM FEW025 32/23 A2984 RMK AO2 SLP101 T03170228
KALI 241517Z AUTO 16012KT 10SM FEW021 SCT029 31/23 A2983 RMK AO2 T03060233
KALI 241453Z AUTO 19010KT 10SM BKN024 BKN029 29/24 A2983 RMK AO2 SLP099 T02940239 50005
KALI 241353Z AUTO 18011KT 10SM BKN018 OVC023 28/24 A2985 RMK AO2 SLP104 T02780239
KALI 241331Z AUTO 17011KT 10SM BKN015 OVC020 27/24 A2984 RMK AO2 T02720239
KALI 241253Z AUTO 17011KT 10SM OVC013 27/24 A2983 RMK AO2 SLP097 T02670239
KALI 241153Z AUTO 17012KT 10SM BKN012 26/24 A2982 RMK AO2 SLP094 T02560239 10272 20256 56005
KALI 241135Z AUTO 16009KT 10SM BKN013 BKN018 26/24 A2982 RMK AO2 T02560239
KALI 241111Z AUTO 16010KT 10SM SCT012 BKN017 26/24 A2982 RMK AO2 T02560239
KALI 241053Z AUTO 16011KT 10SM BKN014 BKN019 26/24 A2982 RMK AO2 SLP095 T02560239
KALI 240953Z AUTO 16007KT 8SM OVC017 26/24 A2983 RMK AO2 SLP098 T02610239
KALI 240853Z AUTO 17010KT 7SM BKN018 OVC022 27/24 A2983 RMK AO2 SLP098 T02670244 58003
KALI 240753Z AUTO 17013KT 8SM BKN020 27/24 A2984 RMK AO2 SLP100 T02720239
KALI 240653Z AUTO 17014KT 8SM BKN022 BKN027 27/24 A2984 RMK AO2 SLP101 T02720239
KALI 240553Z AUTO 16013KT 8SM BKN019 OVC024 27/24 A2984 RMK AO2 SLP101 T02720244 10317 20267 403670250 51021
KALI 240453Z AUTO 15013KT 8SM BKN018 27/24 A2983 RMK AO2 SLP098 T02720244
KALI 240424Z AUTO 15014KT 9SM BKN015 28/24 A2982 RMK AO2 T02780244
KALI 240410Z AUTO 15015G22KT 9SM BKN014 27/24 A2981 RMK AO2 T02720244
KALI 240353Z AUTO 15014G19KT 9SM SCT014 27/24 A2981 RMK AO2 SLP091 T02670244
KALI 240253Z AUTO 14013KT 10SM CLR 27/25 A2978 RMK AO2 SLP081 T02720250 53020
KALI 240153Z AUTO 14014G22KT 10SM CLR 28/26 A2975 RMK AO2 SLP070 T02830256
KALI 240053Z AUTO 14015G23KT 9SM CLR 30/25 A2973 RMK AO2 SLP066 T03000250